createdAt,value
2022-11-20T00:00:02.459Z,16.37
2022-11-20T00:02:36.324Z,3.83
2022-11-20T00:05:06.354Z,8.03
2022-11-20T00:07:36.119Z,4.33
2022-11-20T00:10:05.783Z,19.23
2022-11-20T00:12:35.207Z,4.47
2022-11-20T00:15:04.808Z,4.63
2022-11-20T00:17:36.058Z,15.67
2022-11-20T00:20:06.815Z,8.97
2022-11-20T00:22:36.693Z,5.13
2022-11-20T00:25:06.278Z,15.07
2022-11-20T00:27:35.743Z,8.67
2022-11-20T00:30:05.404Z,6.50
2022-11-20T00:32:35.351Z,6.93
2022-11-20T00:35:05.302Z,14.17
2022-11-20T00:37:35.016Z,6.70
2022-11-20T00:40:04.441Z,2.80
2022-11-20T00:42:35.044Z,4.70
2022-11-20T00:45:05.001Z,5.40
2022-11-20T00:47:35.004Z,9.63
2022-11-20T00:50:04.722Z,3.60
2022-11-20T00:52:36.794Z,11.10
2022-11-20T00:55:06.428Z,4.30
2022-11-20T00:57:49.153Z,7.17
2022-11-20T01:00:18.734Z,16.80
2022-11-20T01:02:49.192Z,19.07
2022-11-20T01:05:18.655Z,10.47
2022-11-20T01:07:48.541Z,10.90
2022-11-20T01:10:19.480Z,19.10
2022-11-20T01:13:09.179Z,3.37
2022-11-20T01:15:39.122Z,10.17
2022-11-20T01:18:08.808Z,10.97
2022-11-20T01:20:38.893Z,7.57
2022-11-20T01:23:08.815Z,18.27
2022-11-20T01:25:38.647Z,17.07
2022-11-20T01:28:08.468Z,19.90
2022-11-20T01:30:38.451Z,19.27
2022-11-20T01:33:07.988Z,9.03
2022-11-20T01:35:37.818Z,17.93
2022-11-20T01:38:07.379Z,14.67
2022-11-20T01:40:37.239Z,14.27
2022-11-20T01:43:25.330Z,17.37
2022-11-20T01:46:01.410Z,15.77
2022-11-20T01:48:41.961Z,7.80
2022-11-20T01:51:25.548Z,18.93
2022-11-20T01:53:55.752Z,11.77
2022-11-20T01:56:25.659Z,12.30
2022-11-20T01:58:57.250Z,6.00
2022-11-20T02:01:27.245Z,21.93
2022-11-20T02:03:56.806Z,25.40
2022-11-20T02:06:26.987Z,14.13
2022-11-20T02:08:56.863Z,14.83
2022-11-20T02:11:26.407Z,12.27
2022-11-20T02:13:57.927Z,8.00
2022-11-20T02:16:28.385Z,6.90
2022-11-20T02:18:58.179Z,4.53
2022-11-20T02:21:30.756Z,8.73
2022-11-20T02:24:26.868Z,13.10
2022-11-20T02:26:57.616Z,12.77
2022-11-20T02:29:48.547Z,13.30
2022-11-20T02:32:26.374Z,9.90
2022-11-20T02:34:56.354Z,16.77
2022-11-20T02:37:26.528Z,10.43
2022-11-20T02:39:56.484Z,6.57
2022-11-20T02:42:25.957Z,11.70
2022-11-20T02:44:55.795Z,7.90
2022-11-20T02:47:25.758Z,19.40
2022-11-20T02:49:55.215Z,14.50
2022-11-20T02:52:25.049Z,14.27
2022-11-20T02:54:55.069Z,1.37
2022-11-20T02:57:24.600Z,2.90
2022-11-20T02:59:54.059Z,11.47
2022-11-20T03:02:23.962Z,17.63
2022-11-20T03:04:54.005Z,10.93
2022-11-20T03:07:24.107Z,18.83
2022-11-20T03:09:53.683Z,18.93
2022-11-20T03:12:23.572Z,20.97
2022-11-20T03:14:53.498Z,31.57
2022-11-20T03:17:23.462Z,24.73
2022-11-20T03:19:53.424Z,29.80
2022-11-20T03:22:23.001Z,18.23
2022-11-20T03:24:52.842Z,50.83
2022-11-20T03:27:22.327Z,26.53
2022-11-20T03:29:52.192Z,34.93
2022-11-20T03:32:22.128Z,14.30
2022-11-20T03:34:52.164Z,15.87
2022-11-20T03:37:21.696Z,26.00
2022-11-20T03:39:51.545Z,31.03
2022-11-20T03:42:39.316Z,22.60
2022-11-20T03:45:09.129Z,23.53
2022-11-20T03:47:38.597Z,24.43
2022-11-20T03:50:08.238Z,49.33
2022-11-20T03:52:37.772Z,17.10
2022-11-20T03:55:09.583Z,36.43
2022-11-20T03:57:39.519Z,28.33
2022-11-20T04:00:09.278Z,50.47
2022-11-20T04:02:39.205Z,41.87
2022-11-20T04:05:09.530Z,34.00
2022-11-20T04:07:39.579Z,30.55
2022-11-20T04:10:09.244Z,26.80
2022-11-20T04:12:38.648Z,32.03
2022-11-20T04:15:08.668Z,27.63
2022-11-20T04:17:38.710Z,25.17
2022-11-20T04:20:09.684Z,28.90
2022-11-20T04:22:39.978Z,45.13
2022-11-20T04:25:10.309Z,31.33
2022-11-20T04:27:40.499Z,35.05
2022-11-20T04:30:10.285Z,40.83
2022-11-20T04:32:40.151Z,28.23
2022-11-20T04:35:09.800Z,31.98
2022-11-20T04:37:39.219Z,30.60
2022-11-20T04:40:09.214Z,31.02
2022-11-20T04:42:39.229Z,37.70
2022-11-20T04:45:08.947Z,31.75
2022-11-20T04:47:38.830Z,32.03
2022-11-20T04:50:09.113Z,27.50
2022-11-20T04:52:39.109Z,34.80
2022-11-20T04:55:09.387Z,32.28
2022-11-20T04:57:39.292Z,30.58
2022-11-20T05:00:09.071Z,40.47
2022-11-20T05:02:39.078Z,37.95
2022-11-20T05:05:09.094Z,29.67
2022-11-20T05:07:39.139Z,39.80
2022-11-20T05:10:09.567Z,28.83
2022-11-20T05:12:39.168Z,39.47
2022-11-20T05:15:09.373Z,35.70
2022-11-20T05:17:39.331Z,28.58
2022-11-20T05:20:09.658Z,29.45
2022-11-20T05:22:39.590Z,27.10
2022-11-20T05:25:09.716Z,32.17
2022-11-20T05:27:39.195Z,34.58
2022-11-20T05:30:08.819Z,34.97
2022-11-20T05:32:38.695Z,32.55
2022-11-20T05:35:08.866Z,31.73
2022-11-20T05:37:38.353Z,24.77
2022-11-20T05:40:08.141Z,30.27
2022-11-20T05:42:37.607Z,32.25
2022-11-20T05:45:08.066Z,35.28
2022-11-20T05:47:37.552Z,29.67
2022-11-20T05:50:07.620Z,39.35
2022-11-20T05:52:37.686Z,31.35
2022-11-20T05:55:07.706Z,31.15
2022-11-20T05:57:37.679Z,34.75
2022-11-20T06:00:07.947Z,35.38
2022-11-20T06:02:38.468Z,27.15
2022-11-20T06:05:08.338Z,29.60
2022-11-20T06:07:37.771Z,27.10
2022-11-20T06:10:07.774Z,28.40
2022-11-20T06:12:37.262Z,31.02
2022-11-20T06:15:07.902Z,33.08
2022-11-20T06:17:37.273Z,28.70
2022-11-20T06:20:06.850Z,27.67
2022-11-20T06:22:36.247Z,26.00
2022-11-20T06:25:05.814Z,28.38
2022-11-20T06:27:35.176Z,29.80
2022-11-20T06:30:05.187Z,39.55
2022-11-20T06:32:35.461Z,30.90
2022-11-20T06:35:05.487Z,28.02
2022-11-20T06:37:34.970Z,30.13
2022-11-20T06:40:04.841Z,34.55
2022-11-20T06:42:35.071Z,31.00
2022-11-20T06:45:05.001Z,32.33
2022-11-20T06:47:35.447Z,29.00
2022-11-20T06:50:05.729Z,28.75
2022-11-20T06:52:39.526Z,36.63
2022-11-20T06:55:13.442Z,30.60
2022-11-20T06:57:43.082Z,35.42
2022-11-20T07:00:12.831Z,28.05
2022-11-20T07:02:42.731Z,27.40
2022-11-20T07:05:12.685Z,24.85
2022-11-20T07:07:43.013Z,28.65
2022-11-20T07:10:12.891Z,26.85
2022-11-20T07:12:43.164Z,25.20
2022-11-20T07:15:12.812Z,33.70
2022-11-20T07:17:42.206Z,28.17
2022-11-20T07:20:11.911Z,28.23
2022-11-20T07:22:41.389Z,34.42
2022-11-20T07:25:11.417Z,30.10
2022-11-20T07:27:41.476Z,39.75
2022-11-20T07:30:15.826Z,38.50
2022-11-20T07:32:45.807Z,37.45
2022-11-20T07:35:15.822Z,35.08
2022-11-20T07:37:47.329Z,37.90
2022-11-20T07:40:17.442Z,42.78
2022-11-20T07:42:52.097Z,46.15
2022-11-20T07:45:22.368Z,46.72
2022-11-20T07:47:51.984Z,44.53
2022-11-20T07:50:21.548Z,42.28
2022-11-20T07:52:51.408Z,36.75
2022-11-20T07:55:21.249Z,35.45
2022-11-20T07:57:57.705Z,37.75
2022-11-20T08:00:28.442Z,40.50
2022-11-20T08:02:58.870Z,39.78
2022-11-20T08:05:28.353Z,45.10
2022-11-20T08:07:58.580Z,44.20
2022-11-20T08:10:28.666Z,46.95
2022-11-20T08:13:16.537Z,30.27
2022-11-20T08:15:50.080Z,37.58
2022-11-20T08:18:35.421Z,35.55
2022-11-20T08:21:06.285Z,37.35
2022-11-20T08:23:35.842Z,41.17
2022-11-20T08:26:05.257Z,39.05
2022-11-20T08:28:36.983Z,45.80
2022-11-20T08:31:06.980Z,47.70
2022-11-20T08:33:36.651Z,42.35
2022-11-20T08:36:06.675Z,34.63
2022-11-20T08:38:36.241Z,38.00
2022-11-20T08:41:25.005Z,39.90
2022-11-20T08:43:55.364Z,35.58
2022-11-20T08:46:25.607Z,36.78
2022-11-20T08:48:55.541Z,47.70
2022-11-20T08:51:25.902Z,31.27
2022-11-20T08:53:56.111Z,28.58
2022-11-20T08:56:26.116Z,23.70
2022-11-20T08:59:18.370Z,28.58
2022-11-20T09:01:46.815Z,25.88
2022-11-20T09:04:17.605Z,23.05
2022-11-20T09:06:47.702Z,30.95
2022-11-20T09:09:17.647Z,28.67
2022-11-20T09:11:47.612Z,39.28
2022-11-20T09:14:17.165Z,39.97
2022-11-20T09:16:49.060Z,49.13
2022-11-20T09:19:35.778Z,38.03
2022-11-20T09:22:07.074Z,46.80
2022-11-20T09:24:37.495Z,42.97
2022-11-20T09:27:08.013Z,44.33
2022-11-20T09:29:37.643Z,28.63
2022-11-20T09:32:07.851Z,43.05
2022-11-20T09:34:37.947Z,63.55
2022-11-20T09:37:08.004Z,54.67
2022-11-20T09:39:40.441Z,56.85
2022-11-20T09:42:16.912Z,47.00
2022-11-20T09:44:55.392Z,52.72
2022-11-20T09:47:24.947Z,57.00
2022-11-20T09:50:05.790Z,56.70
2022-11-20T09:52:40.969Z,62.83
2022-11-20T09:55:13.829Z,71.30
2022-11-20T09:57:44.238Z,55.80
2022-11-20T10:00:15.252Z,63.15
2022-11-20T10:03:05.979Z,90.80
2022-11-20T10:05:47.494Z,85.05
2022-11-20T10:08:17.899Z,38.10
2022-11-20T10:10:52.441Z,65.90
2022-11-20T10:13:26.845Z,37.80
2022-11-20T10:16:01.014Z,51.25
2022-11-20T10:18:39.286Z,36.20
2022-11-20T10:21:37.848Z,33.13
2022-11-20T10:24:07.416Z,26.73
2022-11-20T10:26:45.958Z,35.70
2022-11-20T10:29:19.458Z,45.27
2022-11-20T10:31:51.419Z,35.40
2022-11-20T10:34:23.075Z,31.83
2022-11-20T10:36:58.371Z,35.60
2022-11-20T10:39:27.930Z,56.63
2022-11-20T10:41:57.453Z,34.90
2022-11-20T10:44:53.732Z,62.20
2022-11-20T10:47:27.957Z,40.83
2022-11-20T10:49:58.144Z,33.77
2022-11-20T10:52:41.329Z,38.00
2022-11-20T10:55:30.376Z,40.57
2022-11-20T10:58:13.505Z,60.67
2022-11-20T11:00:43.926Z,45.00
2022-11-20T11:03:32.390Z,26.77
2022-11-20T11:06:04.941Z,33.93
2022-11-20T11:08:36.262Z,25.40
2022-11-20T11:11:10.838Z,43.40
2022-11-20T11:13:40.347Z,29.10
2022-11-20T11:16:19.617Z,28.47
2022-11-20T11:18:49.885Z,20.60
2022-11-20T11:21:28.414Z,36.23
2022-11-20T11:24:19.858Z,29.50
2022-11-20T11:26:59.691Z,36.43
2022-11-20T11:29:31.181Z,43.23
2022-11-20T11:32:10.228Z,45.90
2022-11-20T11:34:40.167Z,29.90
2022-11-20T11:37:18.360Z,53.27
2022-11-20T11:39:55.036Z,39.23
2022-11-20T11:42:34.098Z,36.63
2022-11-20T11:45:09.627Z,33.27
2022-11-20T11:47:39.880Z,56.47
2022-11-20T11:50:12.444Z,49.23
2022-11-20T11:52:45.100Z,60.23
2022-11-20T11:55:20.206Z,39.43
2022-11-20T11:57:51.344Z,89.40
2022-11-20T12:00:24.100Z,78.07
2022-11-20T12:03:16.461Z,66.73
2022-11-20T12:05:50.649Z,77.77
2022-11-20T12:08:38.956Z,65.47
2022-11-20T12:11:29.938Z,60.83
2022-11-20T12:13:59.922Z,50.43
2022-11-20T12:16:29.951Z,69.07
2022-11-20T12:18:59.923Z,46.00
2022-11-20T12:21:47.868Z,47.33
2022-11-20T12:24:17.854Z,76.10
2022-11-20T12:27:09.113Z,42.07
2022-11-20T12:29:48.326Z,39.13
2022-11-20T12:32:18.304Z,31.43
2022-11-20T12:34:51.201Z,61.77
2022-11-20T12:37:29.651Z,48.80
2022-11-20T12:39:59.365Z,56.60
2022-11-20T12:42:57.767Z,41.30
2022-11-20T12:45:45.592Z,37.57
2022-11-20T12:48:18.098Z,50.23
2022-11-20T12:51:14.646Z,67.23
2022-11-20T12:54:19.010Z,64.60
2022-11-20T12:56:57.274Z,76.10
2022-11-20T12:59:37.202Z,54.03
2022-11-20T13:02:19.718Z,64.73
2022-11-20T13:05:07.747Z,63.90
2022-11-20T13:07:38.980Z,54.17
2022-11-20T13:10:11.739Z,58.57
2022-11-20T13:12:44.306Z,61.77
2022-11-20T13:15:32.236Z,68.27
2022-11-20T13:18:03.017Z,53.97
2022-11-20T13:20:33.188Z,41.27
2022-11-20T13:23:02.837Z,35.03
2022-11-20T13:25:39.306Z,25.50
2022-11-20T13:28:12.500Z,48.53
2022-11-20T13:30:52.658Z,46.23
2022-11-20T13:33:31.441Z,42.43
2022-11-20T13:36:06.013Z,32.17
2022-11-20T13:39:05.439Z,31.47
2022-11-20T13:41:39.558Z,33.17
2022-11-20T13:44:12.968Z,39.57
2022-11-20T13:46:45.641Z,33.53
2022-11-20T13:49:32.838Z,54.53
2022-11-20T13:52:20.729Z,26.60
2022-11-20T13:54:53.952Z,38.47
2022-11-20T13:57:38.403Z,36.90
2022-11-20T14:00:28.380Z,41.23
2022-11-20T14:03:00.916Z,50.17
2022-11-20T14:05:37.575Z,39.30
2022-11-20T14:08:07.657Z,54.47
2022-11-20T14:10:41.301Z,27.77
2022-11-20T14:13:22.571Z,31.47
2022-11-20T14:15:51.970Z,34.00
2022-11-20T14:18:25.040Z,45.40
2022-11-20T14:20:54.987Z,29.73
2022-11-20T14:23:30.849Z,43.27
2022-11-20T14:26:00.510Z,53.30
2022-11-20T14:28:31.526Z,56.57
2022-11-20T14:31:01.096Z,51.13
2022-11-20T14:33:31.601Z,36.33
2022-11-20T14:36:01.613Z,58.80
2022-11-20T14:38:31.885Z,94.17
2022-11-20T14:41:10.880Z,92.23
2022-11-20T14:43:41.554Z,113.03
2022-11-20T14:46:11.452Z,53.63
2022-11-20T14:48:51.002Z,57.30
2022-11-20T14:51:48.729Z,73.87
2022-11-20T14:54:19.604Z,57.53
2022-11-20T14:57:05.042Z,38.67
2022-11-20T14:59:35.951Z,51.35
2022-11-20T15:02:13.436Z,44.87
2022-11-20T15:04:49.892Z,45.13
2022-11-20T15:07:35.942Z,69.67
2022-11-20T15:10:09.822Z,45.43
2022-11-20T15:13:00.165Z,63.60
2022-11-20T15:15:33.604Z,69.67
2022-11-20T15:18:04.273Z,85.40
2022-11-20T15:20:35.151Z,68.47
2022-11-20T15:23:05.086Z,66.03
2022-11-20T15:25:34.671Z,52.23
2022-11-20T15:28:04.539Z,61.00
2022-11-20T15:30:34.495Z,71.27
2022-11-20T15:33:04.381Z,59.70
2022-11-20T15:35:34.341Z,52.00
2022-11-20T15:38:03.908Z,54.23
2022-11-20T15:40:34.031Z,53.30
2022-11-20T15:43:12.853Z,60.30
2022-11-20T15:45:47.822Z,60.43
2022-11-20T15:48:20.322Z,59.77
2022-11-20T15:50:49.826Z,62.27
2022-11-20T15:53:19.806Z,60.17
2022-11-20T15:55:49.938Z,56.00
2022-11-20T15:58:19.453Z,58.93
2022-11-20T16:00:49.463Z,47.07
2022-11-20T16:03:19.043Z,58.93
2022-11-20T16:05:48.655Z,69.30
2022-11-20T16:08:18.796Z,76.67
2022-11-20T16:10:49.129Z,81.03
2022-11-20T16:13:37.822Z,53.20
2022-11-20T16:16:08.646Z,55.70
2022-11-20T16:18:40.661Z,42.80
2022-11-20T16:21:15.581Z,75.23
2022-11-20T16:23:45.914Z,53.10
2022-11-20T16:26:15.941Z,44.20
2022-11-20T16:28:45.782Z,18.20
2022-11-20T16:31:16.136Z,37.60
2022-11-20T16:33:46.269Z,33.40
2022-11-20T16:36:17.044Z,23.57
2022-11-20T16:38:46.907Z,27.30
2022-11-20T16:41:16.397Z,27.73
2022-11-20T16:44:02.210Z,24.87
2022-11-20T16:46:32.177Z,19.92
2022-11-20T16:49:08.554Z,22.53
2022-11-20T16:51:38.211Z,30.63
2022-11-20T16:54:08.250Z,23.90
2022-11-20T16:56:38.253Z,18.53
2022-11-20T16:59:08.727Z,24.97
2022-11-20T17:01:41.259Z,14.53
2022-11-20T17:04:10.910Z,20.20
2022-11-20T17:06:44.956Z,21.03
2022-11-20T17:09:14.771Z,15.10
2022-11-20T17:11:44.604Z,22.17
2022-11-20T17:14:14.466Z,36.77
2022-11-20T17:16:44.052Z,40.73
2022-11-20T17:19:13.908Z,34.27
2022-11-20T17:21:43.725Z,33.77
2022-11-20T17:24:14.026Z,57.87
2022-11-20T17:26:43.838Z,62.33
2022-11-20T17:29:14.680Z,40.03
2022-11-20T17:31:44.735Z,67.57
2022-11-20T17:34:14.861Z,68.43
2022-11-20T17:36:47.765Z,38.63
2022-11-20T17:39:17.603Z,32.50
2022-11-20T17:42:07.082Z,30.90
2022-11-20T17:44:36.649Z,20.77
2022-11-20T17:47:06.892Z,28.67
2022-11-20T17:49:36.835Z,22.00
2022-11-20T17:52:06.950Z,35.03
2022-11-20T17:54:36.901Z,27.33
2022-11-20T17:57:35.403Z,28.90
2022-11-20T18:00:05.028Z,17.40
2022-11-20T18:02:34.503Z,9.97
2022-11-20T18:05:04.409Z,4.60
2022-11-20T18:07:38.652Z,22.03
2022-11-20T18:10:11.570Z,14.93
2022-11-20T18:12:41.049Z,14.43
2022-11-20T18:15:10.942Z,4.07
2022-11-20T18:17:41.130Z,14.80
2022-11-20T18:20:28.583Z,14.97
2022-11-20T18:22:59.343Z,21.97
2022-11-20T18:25:29.271Z,11.77
2022-11-20T18:27:58.718Z,15.37
2022-11-20T18:30:28.596Z,28.90
2022-11-20T18:32:58.563Z,24.03
2022-11-20T18:35:28.974Z,21.73
2022-11-20T18:37:58.968Z,11.20
2022-11-20T18:40:28.869Z,18.40
2022-11-20T18:43:16.576Z,13.90
2022-11-20T18:45:46.510Z,5.37
2022-11-20T18:48:16.541Z,25.67
2022-11-20T18:50:46.088Z,12.73
2022-11-20T18:53:15.949Z,19.73
2022-11-20T18:55:45.862Z,32.93
2022-11-20T18:58:16.239Z,35.27
2022-11-20T19:00:46.248Z,44.30
2022-11-20T19:03:15.792Z,26.27
2022-11-20T19:05:45.765Z,45.70
2022-11-20T19:08:15.718Z,27.37
2022-11-20T19:10:45.261Z,35.23
2022-11-20T19:13:15.110Z,47.67
2022-11-20T19:15:44.671Z,34.13
2022-11-20T19:18:14.091Z,45.67
2022-11-20T19:20:44.245Z,46.03
2022-11-20T19:23:14.551Z,41.60
2022-11-20T19:25:44.481Z,24.93
2022-11-20T19:28:13.872Z,15.80
2022-11-20T19:30:43.817Z,16.27
2022-11-20T19:33:13.702Z,37.73
2022-11-20T19:35:43.720Z,29.03
2022-11-20T19:38:14.074Z,16.83
2022-11-20T19:40:43.694Z,39.83
2022-11-20T19:43:13.132Z,31.97
2022-11-20T19:45:43.009Z,26.80
2022-11-20T19:48:13.068Z,28.80
2022-11-20T19:50:43.085Z,58.27
2022-11-20T19:53:13.037Z,54.70
2022-11-20T19:55:43.914Z,28.77
2022-11-20T19:58:13.776Z,25.23
2022-11-20T20:00:43.449Z,17.00
2022-11-20T20:03:12.883Z,15.20
2022-11-20T20:05:42.399Z,6.00
2022-11-20T20:08:16.474Z,24.43
2022-11-20T20:10:47.518Z,12.90
2022-11-20T20:13:17.493Z,11.70
2022-11-20T20:15:47.021Z,21.93
2022-11-20T20:18:16.457Z,11.87
2022-11-20T20:20:45.867Z,17.07
2022-11-20T20:23:15.796Z,17.93
2022-11-20T20:25:45.410Z,17.10
2022-11-20T20:28:14.809Z,20.27
2022-11-20T20:30:44.662Z,13.13
2022-11-20T20:33:14.588Z,28.33
2022-11-20T20:35:44.860Z,14.60
2022-11-20T20:38:14.440Z,20.17
2022-11-20T20:40:53.173Z,16.07
2022-11-20T20:43:23.061Z,17.90
2022-11-20T20:45:52.664Z,15.53
2022-11-20T20:48:23.347Z,11.17
2022-11-20T20:50:58.531Z,16.10
2022-11-20T20:53:28.381Z,21.93
2022-11-20T20:56:02.400Z,39.13
2022-11-20T20:58:32.018Z,24.80
2022-11-20T21:01:07.997Z,12.83
2022-11-20T21:06:06.652Z,8.97
2022-11-20T21:08:40.112Z,30.23
2022-11-20T21:11:11.739Z,24.07
2022-11-20T21:13:41.866Z,24.37
2022-11-20T21:16:12.312Z,19.27
2022-11-20T21:18:42.237Z,27.40
2022-11-20T21:21:32.130Z,16.60
2022-11-20T21:24:02.211Z,23.50
2022-11-20T21:26:32.204Z,19.47
2022-11-20T21:29:01.702Z,9.00
2022-11-20T21:31:32.476Z,35.87
2022-11-20T21:34:03.006Z,22.67
2022-11-20T21:36:33.253Z,19.63
2022-11-20T21:39:03.004Z,13.87
2022-11-20T21:41:32.920Z,13.83
2022-11-20T21:46:55.174Z,9.87
2022-11-20T21:49:25.444Z,6.03
2022-11-20T21:51:55.702Z,42.77
2022-11-20T21:54:25.974Z,19.30
2022-11-20T21:56:56.102Z,18.63
2022-11-20T21:59:26.478Z,16.00
2022-11-20T22:01:56.439Z,14.30
2022-11-20T22:04:26.723Z,17.73
2022-11-20T22:06:56.356Z,15.90
2022-11-20T22:09:25.826Z,21.60
2022-11-20T22:11:55.777Z,19.17
2022-11-20T22:14:26.622Z,11.53
2022-11-20T22:16:56.292Z,19.37
2022-11-20T22:19:25.693Z,6.00
2022-11-20T22:21:55.524Z,30.90
2022-11-20T22:24:25.744Z,11.77
2022-11-20T22:26:55.801Z,9.53
2022-11-20T22:29:25.317Z,23.47
2022-11-20T22:31:54.761Z,19.37
2022-11-20T22:34:24.579Z,17.20
2022-11-20T22:36:54.732Z,15.87
2022-11-20T22:39:24.295Z,18.47
2022-11-20T22:41:53.666Z,15.43
2022-11-20T22:44:23.782Z,10.03
2022-11-20T22:46:53.974Z,11.73
2022-11-20T22:49:23.891Z,27.63
2022-11-20T22:51:53.268Z,19.60
2022-11-20T22:54:22.936Z,18.13
2022-11-20T22:56:52.670Z,17.20
2022-11-20T22:59:22.577Z,17.20
2022-11-20T23:01:52.509Z,22.07
2022-11-20T23:04:22.754Z,13.83
2022-11-20T23:06:52.960Z,8.63
2022-11-20T23:09:22.498Z,14.17
2022-11-20T23:11:52.383Z,17.17
2022-11-20T23:14:27.414Z,42.33
2022-11-20T23:16:58.487Z,27.05
2022-11-20T23:19:28.419Z,21.40
2022-11-20T23:21:57.896Z,17.30
2022-11-20T23:24:27.948Z,34.13
2022-11-20T23:26:58.092Z,17.77
2022-11-20T23:29:28.182Z,12.97
2022-11-20T23:31:57.614Z,25.67
2022-11-20T23:34:27.626Z,20.03
2022-11-20T23:36:57.765Z,13.50
2022-11-20T23:39:27.274Z,26.47
2022-11-20T23:41:57.159Z,21.27
2022-11-20T23:44:26.915Z,16.27
2022-11-20T23:46:57.040Z,30.40
2022-11-20T23:49:26.522Z,22.93
2022-11-20T23:51:56.385Z,19.17
2022-11-20T23:54:26.712Z,23.53
2022-11-20T23:56:56.448Z,12.63
2022-11-20T23:59:27.396Z,25.53
